Time;durP1;ratioP1;P1;durP2;ratioP2;P2;SDS_P1;SDS_P2;PMS_P1;PMS_P2;Temp;Humidity;BMP_temperature;BMP_pressure;BME280_temperature;BME280_humidity;BME280_pressure;Samples;Min_cycle;Max_cycle;Signal;HPM_P1;HPM_P2
2023/08/26 00:00:48;;;;;;;17.88;15.63;;;;;;;15.56;100.00;100793.34;5047711;28;20727;-68
2023/08/26 00:03:14;;;;;;;18.58;15.07;;;;;;;15.51;100.00;100797.31;5037703;28;20056;-68
2023/08/26 00:05:39;;;;;;;16.52;14.13;;;;;;;15.47;100.00;100796.69;5044504;28;20122;-67
2023/08/26 00:08:05;;;;;;;19.92;14.82;;;;;;;15.40;100.00;100795.41;5038934;28;20110;-68
2023/08/26 00:10:30;;;;;;;17.90;14.82;;;;;;;15.34;100.00;100801.19;5033718;28;20033;-68
2023/08/26 00:12:56;;;;;;;19.67;15.23;;;;;;;15.35;100.00;100793.06;5038104;28;20021;-69
2023/08/26 00:15:22;;;;;;;20.50;16.13;;;;;;;15.34;100.00;100801.19;5044601;28;20028;-70
2023/08/26 00:17:48;;;;;;;22.08;15.88;;;;;;;15.32;100.00;100800.47;5036120;28;20546;-68
2023/08/26 00:20:14;;;;;;;19.08;15.80;;;;;;;15.29;100.00;100798.00;5045733;28;20024;-68
2023/08/26 00:22:40;;;;;;;18.48;15.55;;;;;;;15.21;100.00;100803.91;5038573;28;20051;-69
2023/08/26 00:25:06;;;;;;;20.88;16.30;;;;;;;15.23;100.00;100799.31;5040922;28;20064;-70
2023/08/26 00:27:31;;;;;;;21.52;17.67;;;;;;;15.14;100.00;100805.31;5027352;28;20679;-69
2023/08/26 00:29:56;;;;;;;19.38;16.73;;;;;;;15.12;100.00;100799.19;5030597;28;20115;-68
2023/08/26 00:32:22;;;;;;;18.27;16.38;;;;;;;15.05;100.00;100800.59;5026489;28;20473;-68
2023/08/26 00:34:47;;;;;;;18.75;15.38;;;;;;;15.01;100.00;100797.28;5029060;28;20028;-68
2023/08/26 00:37:13;;;;;;;16.08;14.30;;;;;;;14.93;100.00;100800.50;5038282;28;20029;-68
2023/08/26 00:39:39;;;;;;;15.88;12.23;;;;;;;14.90;100.00;100800.72;5042587;28;20104;-69
2023/08/26 00:42:04;;;;;;;14.77;10.95;;;;;;;14.81;100.00;100801.34;5054124;28;20207;-67
2023/08/26 00:44:30;;;;;;;11.80;9.55;;;;;;;14.79;100.00;100805.09;5049081;28;20139;-70
2023/08/26 00:46:56;;;;;;;9.32;7.63;;;;;;;14.62;100.00;100798.22;5048870;28;20028;-67
2023/08/26 00:49:23;;;;;;;8.48;6.95;;;;;;;14.52;100.00;100797.13;5059340;28;20368;-68
2023/08/26 00:51:49;;;;;;;11.27;6.97;;;;;;;14.43;100.00;100809.31;5043815;28;20499;-69
2023/08/26 00:54:15;;;;;;;10.55;6.85;;;;;;;14.33;100.00;100809.03;5041822;28;20028;-68
2023/08/26 00:56:40;;;;;;;7.53;6.20;;;;;;;14.29;100.00;100802.16;5042296;28;20035;-68
2023/08/26 00:59:06;;;;;;;10.15;5.57;;;;;;;14.18;100.00;100802.91;5060498;28;20250;-68
2023/08/26 01:01:32;;;;;;;6.97;5.65;;;;;;;14.13;100.00;100810.38;5032761;28;20104;-68
2023/08/26 01:03:59;;;;;;;7.18;5.18;;;;;;;14.08;100.00;100819.66;5045379;28;20032;-68
2023/08/26 01:06:24;;;;;;;7.30;5.38;;;;;;;14.01;100.00;100813.03;5029421;28;20114;-69
2023/08/26 01:08:50;;;;;;;6.95;4.93;;;;;;;13.91;100.00;100807.38;5031143;28;20056;-69
2023/08/26 01:11:34;;;;;;;9.10;4.82;;;;;;;13.83;100.00;100815.06;5043116;28;20039;-69
2023/08/26 01:14:10;;;;;;;;;;;;;;;13.90;100.00;100819.06;5042955;28;20056;-69
2023/08/26 01:16:37;;;;;;;6.97;4.57;;;;;;;13.76;100.00;100809.25;5045836;28;19980;-69
2023/08/26 01:19:09;;;;;;;9.18;4.50;;;;;;;13.69;100.00;100811.47;5042917;28;20115;-71
2023/08/26 01:21:36;;;;;;;8.82;4.45;;;;;;;13.59;100.00;100812.16;5044943;28;20056;-68
2023/08/26 01:24:04;;;;;;;6.47;4.35;;;;;;;13.55;100.00;100816.84;5036859;28;20043;-68
2023/08/26 01:26:29;;;;;;;7.65;4.57;;;;;;;13.53;100.00;100812.53;5034127;28;20506;-68
2023/08/26 01:28:55;;;;;;;6.47;4.40;;;;;;;13.46;100.00;100817.44;5028527;28;20034;-69
2023/08/26 01:31:22;;;;;;;7.60;4.78;;;;;;;13.38;100.00;100817.06;5040717;28;20025;-69
2023/08/26 01:34:23;;;;;;;7.38;4.88;;;;;;;13.38;100.00;100822.41;5026522;28;20124;-68
2023/08/26 01:36:52;;;;;;;8.32;4.93;;;;;;;13.35;100.00;100822.59;5038442;28;20041;-67
2023/08/26 01:39:19;;;;;;;8.18;4.68;;;;;;;13.31;100.00;100821.06;5033207;28;20041;-68
2023/08/26 01:41:51;;;;;;;8.77;4.80;;;;;;;13.19;100.00;100826.19;5038418;28;20024;-68
2023/08/26 01:44:20;;;;;;;7.03;5.05;;;;;;;13.20;100.00;100819.88;5051355;28;20041;-70
2023/08/26 01:46:47;;;;;;;7.03;4.32;;;;;;;13.14;100.00;100822.94;5043459;28;20021;-68
2023/08/26 01:49:13;;;;;;;8.25;4.32;;;;;;;13.12;100.00;100818.63;5044512;28;20039;-68
2023/08/26 01:51:39;;;;;;;7.03;4.40;;;;;;;13.13;100.00;100813.22;5029085;28;20381;-68
2023/08/26 01:54:06;;;;;;;5.75;3.80;;;;;;;13.08;100.00;100814.44;5046693;28;20175;-69
2023/08/26 01:56:32;;;;;;;9.27;4.22;;;;;;;13.07;100.00;100818.91;5037329;28;20093;-67
2023/08/26 01:58:57;;;;;;;5.65;3.92;;;;;;;13.02;100.00;100821.03;5042711;28;20502;-68
2023/08/26 02:01:22;;;;;;;7.03;3.78;;;;;;;13.02;100.00;100822.84;5024688;28;20112;-69
2023/08/26 02:03:48;;;;;;;6.93;3.75;;;;;;;12.95;100.00;100817.84;5034385;28;20029;-68
2023/08/26 02:06:13;;;;;;;7.68;3.75;;;;;;;12.96;100.00;100813.41;5043802;28;20119;-69
2023/08/26 02:08:39;;;;;;;4.32;3.50;;;;;;;12.93;100.00;100821.59;5040318;28;20339;-68
2023/08/26 02:11:04;;;;;;;6.43;3.70;;;;;;;12.87;100.00;100814.78;5041668;28;20032;-69
2023/08/26 02:13:30;;;;;;;5.90;3.88;;;;;;;12.83;100.00;100815.94;5039941;28;20527;-69
2023/08/26 02:15:56;;;;;;;6.05;3.90;;;;;;;12.84;100.00;100823.00;5048953;28;20021;-68
2023/08/26 02:18:21;;;;;;;8.90;4.20;;;;;;;12.81;100.00;100811.66;5046852;28;20182;-69
2023/08/26 02:20:48;;;;;;;7.53;4.30;;;;;;;12.71;100.00;100804.19;5053405;28;20128;-69
2023/08/26 02:23:14;;;;;;;5.53;3.58;;;;;;;12.68;100.00;100808.84;5038680;28;20108;-68
2023/08/26 02:25:39;;;;;;;4.75;3.72;;;;;;;12.74;100.00;100811.16;5046059;28;20497;-69
2023/08/26 02:28:05;;;;;;;5.43;3.70;;;;;;;12.69;100.00;100807.91;5042165;28;20350;-70
2023/08/26 02:30:31;;;;;;;8.48;4.20;;;;;;;12.65;100.00;100809.03;5051870;28;20030;-68
2023/08/26 02:32:56;;;;;;;5.90;3.92;;;;;;;12.66;100.00;100811.59;5050134;28;20154;-68
2023/08/26 02:35:22;;;;;;;5.78;3.58;;;;;;;12.60;100.00;100811.97;5051717;28;20567;-69
2023/08/26 02:37:47;;;;;;;6.38;4.00;;;;;;;12.57;100.00;100812.16;5048055;28;20079;-70
2023/08/26 02:40:13;;;;;;;8.77;4.18;;;;;;;12.53;100.00;100809.75;5035653;28;20037;-70
2023/08/26 02:42:38;;;;;;;5.35;3.80;;;;;;;12.54;100.00;100803.47;5025577;28;20474;-70
2023/08/26 02:45:07;;;;;;;6.85;3.83;;;;;;;12.53;100.00;100799.94;5036145;28;20419;-69
2023/08/26 02:47:33;;;;;;;7.05;3.88;;;;;;;12.49;100.00;100803.75;5052055;28;20447;-69
2023/08/26 02:49:58;;;;;;;8.20;3.80;;;;;;;12.50;100.00;100805.47;5035612;28;20078;-69
2023/08/26 02:52:24;;;;;;;8.13;4.10;;;;;;;12.43;100.00;100802.31;5042578;28;20044;-69
2023/08/26 02:54:49;;;;;;;8.45;3.75;;;;;;;12.49;100.00;100803.75;5056877;28;20052;-69
2023/08/26 02:57:14;;;;;;;6.57;3.95;;;;;;;12.46;100.00;100810.13;5044731;28;20052;-69
2023/08/26 02:59:40;;;;;;;6.68;4.03;;;;;;;12.41;100.00;100803.34;5046493;28;20025;-69
2023/08/26 03:02:07;;;;;;;5.97;3.50;;;;;;;12.43;100.00;100807.66;5050180;28;20028;-69
2023/08/26 03:04:33;;;;;;;5.78;4.13;;;;;;;12.35;100.00;100807.22;5046298;28;20032;-69
2023/08/26 03:06:59;;;;;;;6.18;3.60;;;;;;;12.30;100.00;100806.66;5049162;28;20040;-70
2023/08/26 03:09:27;;;;;;;7.18;3.88;;;;;;;12.25;100.00;100810.53;5033084;28;20044;-70
2023/08/26 03:11:53;;;;;;;6.20;3.92;;;;;;;12.23;100.00;100817.78;5044339;28;20051;-67
2023/08/26 03:14:18;;;;;;;7.93;4.05;;;;;;;12.24;100.00;100808.81;5043073;28;20025;-68
2023/08/26 03:16:44;;;;;;;5.32;3.63;;;;;;;12.23;100.00;100826.63;5036871;28;20676;-68
2023/08/26 03:19:09;;;;;;;8.13;3.97;;;;;;;12.16;100.00;100814.59;5038004;28;20428;-69
2023/08/26 03:21:35;;;;;;;8.32;4.50;;;;;;;12.18;100.00;100821.56;5045040;28;20109;-68
2023/08/26 03:24:00;;;;;;;4.65;3.60;;;;;;;12.16;100.00;100820.81;5042821;28;20539;-68
2023/08/26 03:26:26;;;;;;;5.20;3.60;;;;;;;12.15;100.00;100815.53;5055378;28;20464;-69
2023/08/26 03:28:51;;;;;;;7.40;4.07;;;;;;;12.13;100.00;100828.13;5039679;28;20060;-68
2023/08/26 03:31:16;;;;;;;6.00;3.80;;;;;;;12.08;100.00;100825.72;5059347;28;20123;-70
2023/08/26 03:33:42;;;;;;;10.30;4.47;;;;;;;12.02;100.00;100814.53;5037670;28;20363;-68
2023/08/26 03:36:07;;;;;;;7.43;3.80;;;;;;;12.02;100.00;100820.72;5050492;28;20051;-69
2023/08/26 03:38:36;;;;;;;6.50;4.00;;;;;;;11.98;100.00;100818.31;5041255;28;20045;-68
2023/08/26 03:41:05;;;;;;;6.57;3.90;;;;;;;11.93;100.00;100818.59;5044053;28;20154;-68
2023/08/26 03:43:31;;;;;;;5.55;4.10;;;;;;;11.91;100.00;100817.78;5043144;28;20033;-68
2023/08/26 03:45:57;;;;;;;9.85;4.35;;;;;;;11.88;100.00;100821.53;5035238;28;20071;-68
2023/08/26 03:48:22;;;;;;;7.30;4.05;;;;;;;11.88;100.00;100821.53;5045983;28;20118;-69
2023/08/26 03:50:52;;;;;;;6.80;4.03;;;;;;;11.84;100.00;100821.78;5048892;28;20024;-68
2023/08/26 03:53:19;;;;;;;7.28;4.32;;;;;;;11.81;100.00;100824.56;5045908;28;20052;-68
2023/08/26 03:55:45;;;;;;;7.25;3.92;;;;;;;11.72;100.00;100833.97;5037420;28;20040;-69
2023/08/26 03:58:10;;;;;;;8.63;4.78;;;;;;;11.75;100.00;100838.28;5032311;28;20031;-69
2023/08/26 04:00:36;;;;;;;6.53;4.18;;;;;;;11.71;100.00;100842.91;5046319;28;20065;-68
2023/08/26 04:03:02;;;;;;;6.35;4.30;;;;;;;11.69;100.00;100836.78;5045544;28;20060;-68
2023/08/26 04:05:27;;;;;;;7.05;4.53;;;;;;;11.72;100.00;100839.28;5029529;28;20018;-68
2023/08/26 04:07:52;;;;;;;9.00;4.43;;;;;;;11.69;100.00;100845.63;5058757;28;20080;-71
2023/08/26 04:10:18;;;;;;;6.53;3.95;;;;;;;11.68;100.00;100848.41;5035683;28;20044;-68
2023/08/26 04:12:43;;;;;;;8.18;4.40;;;;;;;11.65;100.00;100848.56;5036224;28;20286;-68
2023/08/26 04:15:09;;;;;;;12.70;4.60;;;;;;;11.60;100.00;100845.28;5055228;28;20040;-68
2023/08/26 04:17:34;;;;;;;5.68;4.18;;;;;;;11.60;100.00;100850.63;5052823;28;20051;-68
2023/08/26 04:19:59;;;;;;;8.23;4.68;;;;;;;11.58;100.00;100850.72;5049899;28;20029;-68
2023/08/26 04:22:25;;;;;;;6.28;4.63;;;;;;;11.51;100.00;100852.00;5032429;28;20021;-68
2023/08/26 04:24:50;;;;;;;4.55;4.07;;;;;;;11.48;100.00;100854.81;5048475;28;20028;-67
2023/08/26 04:27:16;;;;;;;7.00;4.90;;;;;;;11.50;100.00;100857.41;5046228;28;20053;-68
2023/08/26 04:29:42;;;;;;;8.30;5.65;;;;;;;11.46;100.00;100857.59;5036756;28;20025;-68
2023/08/26 04:32:07;;;;;;;9.82;4.78;;;;;;;11.44;100.00;100855.94;5053108;28;20060;-68
2023/08/26 04:34:34;;;;;;;7.75;4.65;;;;;;;11.44;100.00;100850.59;5054572;28;20494;-68
2023/08/26 04:36:59;;;;;;;9.93;4.95;;;;;;;11.39;100.00;100853.50;5052364;28;20116;-68
2023/08/26 04:39:25;;;;;;;6.68;5.32;;;;;;;11.42;100.00;100860.50;5032826;28;20505;-69
2023/08/26 04:41:50;;;;;;;7.00;4.30;;;;;;;11.42;100.00;100864.03;5038829;28;20029;-69
2023/08/26 04:44:17;;;;;;;7.80;4.78;;;;;;;11.43;100.00;100857.75;5040093;28;20484;-69
2023/08/26 04:46:43;;;;;;;8.35;5.10;;;;;;;11.46;100.00;100864.72;5045332;28;20496;-69
2023/08/26 04:49:08;;;;;;;8.38;4.18;;;;;;;11.44;100.00;100864.78;5050765;28;20052;-69
2023/08/26 04:51:34;;;;;;;8.25;4.90;;;;;;;11.45;100.00;100869.19;5030362;28;20551;-70
2023/08/26 04:53:59;;;;;;;6.45;4.50;;;;;;;11.47;100.00;100877.09;5038878;28;20417;-69
2023/08/26 04:56:24;;;;;;;7.72;4.68;;;;;;;11.48;100.00;100882.31;5041659;28;20037;-70
2023/08/26 04:58:50;;;;;;;6.47;4.38;;;;;;;11.44;100.00;100874.59;5042944;28;20036;-69
2023/08/26 05:01:15;;;;;;;9.00;4.93;;;;;;;11.44;100.00;100886.09;5027677;28;20189;-68
2023/08/26 05:03:41;;;;;;;7.32;5.03;;;;;;;11.44;100.00;100883.44;5052989;28;20158;-69
2023/08/26 05:06:07;;;;;;;6.30;4.20;;;;;;;11.44;100.00;100894.09;5039739;28;20144;-68
2023/08/26 05:08:32;;;;;;;10.13;4.60;;;;;;;11.38;100.00;100886.44;5054625;28;20028;-69
2023/08/26 05:10:58;;;;;;;8.45;4.90;;;;;;;11.50;100.00;100894.75;5043110;28;20036;-69
2023/08/26 05:13:23;;;;;;;8.50;4.72;;;;;;;11.54;100.00;100893.63;5033866;28;20036;-70
2023/08/26 05:15:48;;;;;;;9.13;4.45;;;;;;;11.53;100.00;100897.22;5028148;28;20025;-70
2023/08/26 05:18:18;;;;;;;10.13;4.82;;;;;;;11.54;100.00;100896.28;5035178;28;20116;-69
2023/08/26 05:20:44;;;;;;;8.90;5.20;;;;;;;11.56;100.00;100905.06;5048092;28;20075;-69
2023/08/26 05:23:11;;;;;;;6.85;5.00;;;;;;;11.61;100.00;100900.34;5038661;28;20028;-68
2023/08/26 05:25:37;;;;;;;9.35;5.25;;;;;;;11.58;100.00;100897.81;5040280;28;20029;-68
2023/08/26 05:28:04;;;;;;;10.45;5.15;;;;;;;11.64;100.00;100901.03;5040723;28;20033;-68
2023/08/26 05:30:30;;;;;;;9.15;4.90;;;;;;;11.69;100.00;100893.63;5046355;28;20029;-69
2023/08/26 05:32:55;;;;;;;9.23;4.57;;;;;;;11.69;100.00;100888.31;5034248;28;20048;-68
2023/08/26 05:35:20;;;;;;;11.70;5.20;;;;;;;11.72;100.00;100893.47;5028098;28;20369;-70
2023/08/26 05:37:46;;;;;;;8.85;5.10;;;;;;;11.80;100.00;100901.06;5044957;28;20032;-71
2023/08/26 05:40:12;;;;;;;10.30;5.30;;;;;;;11.83;100.00;100898.25;5048313;28;20018;-69
2023/08/26 05:42:38;;;;;;;8.43;5.13;;;;;;;11.77;100.00;100882.56;5036239;28;20464;-70
2023/08/26 05:45:05;;;;;;;9.18;5.00;;;;;;;11.90;100.00;100891.63;5047129;28;20039;-70
2023/08/26 05:47:31;;;;;;;9.98;6.05;;;;;;;11.98;100.00;100887.69;5045346;28;20499;-70
2023/08/26 05:49:58;;;;;;;8.45;4.55;;;;;;;12.16;100.00;100892.84;5047650;28;20048;-69
2023/08/26 05:52:24;;;;;;;7.50;4.72;;;;;;;12.29;100.00;100885.00;5027493;28;20526;-69
2023/08/26 05:54:49;;;;;;;10.52;5.07;;;;;;;12.46;100.00;100884.03;5047281;28;20036;-70
2023/08/26 05:57:15;;;;;;;9.90;4.97;;;;;;;12.64;100.00;100880.28;5042543;28;20067;-68
2023/08/26 05:59:40;;;;;;;9.73;4.40;;;;;;;12.74;100.00;100880.59;5048231;28;20021;-68
2023/08/26 06:02:06;;;;;;;10.77;4.43;;;;;;;12.91;100.00;100876.91;5044832;28;20041;-69
2023/08/26 06:04:31;;;;;;;6.68;4.05;;;;;;;12.98;100.00;100878.25;5046282;28;20437;-69
2023/08/26 06:06:59;;;;;;;7.97;4.45;;;;;;;13.08;100.00;100879.41;5025368;28;20033;-68
2023/08/26 06:09:24;;;;;;;6.80;4.07;;;;;;;13.19;100.00;100876.97;5039461;28;20024;-69
2023/08/26 06:11:50;;;;;;;8.05;4.00;;;;;;;13.33;100.00;100880.63;5036604;28;20029;-70
2023/08/26 06:14:15;;;;;;;6.80;3.75;;;;;;;13.40;100.00;100877.47;5042865;28;20108;-69
2023/08/26 06:16:41;;;;;;;9.27;3.97;;;;;;;13.51;100.00;100875.97;5044035;28;20025;-70
2023/08/26 06:19:06;;;;;;;6.65;3.65;;;;;;;13.58;100.00;100875.47;5044039;28;20034;-70
2023/08/26 06:21:32;;;;;;;5.38;3.25;;;;;;;13.70;100.00;100871.16;5025356;28;20021;-70
2023/08/26 06:23:57;;;;;;;8.05;3.63;;;;;;;13.84;100.00;100881.84;5026216;28;20360;-71
2023/08/26 06:26:23;;;;;;;4.75;3.10;;;;;;;14.06;100.00;100883.16;5048727;28;20082;-70
2023/08/26 06:28:48;;;;;;;6.32;3.05;;;;;;;14.17;100.00;100877.94;5045990;28;20021;-69
2023/08/26 06:31:13;;;;;;;5.90;2.80;;;;;;;14.22;100.00;100866.97;5030662;28;20124;-68
2023/08/26 06:33:39;;;;;;;4.97;2.60;;;;;;;14.41;100.00;100873.66;5038080;28;20108;-69
2023/08/26 06:36:05;;;;;;;4.90;2.83;;;;;;;14.59;100.00;100873.41;5050369;28;20108;-69
2023/08/26 06:38:30;;;;;;;7.38;2.80;;;;;;;14.58;100.00;100877.06;5045598;28;20025;-68
2023/08/26 06:40:57;;;;;;;4.20;2.83;;;;;;;14.61;100.00;100879.53;5043889;28;20365;-68
2023/08/26 06:43:23;;;;;;;6.93;3.35;;;;;;;14.79;100.00;100875.59;5042934;28;20029;-70
2023/08/26 06:45:49;;;;;;;5.45;2.97;;;;;;;14.91;100.00;100873.91;5044170;28;20025;-70
2023/08/26 06:48:15;;;;;;;6.75;3.10;;;;;;;14.94;100.00;100873.72;5049857;28;20027;-70
2023/08/26 06:50:41;;;;;;;5.53;3.00;;;;;;;15.06;100.00;100877.38;5042866;28;20321;-70
2023/08/26 06:53:07;;;;;;;6.22;2.90;;;;;;;15.16;100.00;100871.25;5038900;28;20107;-70
2023/08/26 06:55:32;;;;;;;4.28;2.67;;;;;;;15.46;100.00;100878.13;5038018;28;20032;-69
2023/08/26 06:57:58;;;;;;;4.10;2.53;;;;;;;15.65;100.00;100883.06;5036678;28;20033;-69
2023/08/26 07:00:23;;;;;;;7.75;2.53;;;;;;;15.81;100.00;100875.66;5041766;28;20768;-71
2023/08/26 07:02:48;;;;;;;5.43;3.00;;;;;;;15.96;100.00;100876.34;5042974;28;20024;-69
2023/08/26 07:05:14;;;;;;;5.15;2.33;;;;;;;15.99;100.00;100869.91;5042751;28;20045;-71
2023/08/26 07:07:39;;;;;;;3.58;2.05;;;;;;;16.14;100.00;100871.47;5030425;28;21281;-70
2023/08/26 07:10:05;;;;;;;5.40;1.98;;;;;;;16.29;100.00;100869.47;5039107;28;20036;-69
2023/08/26 07:12:31;;;;;;;5.40;2.33;;;;;;;16.44;100.00;100869.19;5036242;28;20021;-68
2023/08/26 07:14:56;;;;;;;4.38;2.33;;;;;;;16.77;99.86;100875.72;5037280;28;20411;-70
2023/08/26 07:17:21;;;;;;;4.80;1.98;;;;;;;16.93;98.58;100881.63;5035733;28;20120;-70
2023/08/26 07:19:47;;;;;;;3.50;2.22;;;;;;;17.26;99.11;100876.41;5024223;28;20573;-69
2023/08/26 07:22:12;;;;;;;5.45;2.20;;;;;;;17.42;95.60;100875.09;5026310;28;20112;-69
2023/08/26 07:24:37;;;;;;;5.88;2.25;;;;;;;17.62;95.19;100878.03;5047712;28;20035;-70
2023/08/26 07:27:05;;;;;;;5.63;2.15;;;;;;;17.73;92.12;100880.75;5037292;28;20095;-68
2023/08/26 07:29:33;;;;;;;4.80;2.40;;;;;;;17.72;92.45;100879.00;5033431;28;20092;-69
2023/08/26 07:31:58;;;;;;;6.68;2.90;;;;;;;17.96;92.23;100881.59;5025919;28;20033;-70
2023/08/26 07:34:24;;;;;;;3.97;2.30;;;;;;;18.41;92.50;100868.88;5046992;28;20033;-69
2023/08/26 07:36:49;;;;;;;5.10;2.38;;;;;;;18.67;87.72;100879.31;5035573;28;20059;-69
2023/08/26 07:39:14;;;;;;;4.65;2.10;;;;;;;18.57;86.58;100881.06;5026171;28;20059;-70
2023/08/26 07:41:40;;;;;;;4.20;2.22;;;;;;;18.75;86.87;100886.78;5049334;28;20031;-70
2023/08/26 07:44:05;;;;;;;4.35;1.95;;;;;;;18.96;85.15;100881.41;5043733;28;20078;-69
2023/08/26 07:46:30;;;;;;;4.78;1.80;;;;;;;19.08;85.19;100880.34;5033516;28;20053;-70
2023/08/26 07:48:56;;;;;;;4.05;2.00;;;;;;;19.38;83.24;100887.63;5037506;28;20040;-70
2023/08/26 07:51:21;;;;;;;5.22;2.08;;;;;;;19.69;82.74;100875.03;5040805;28;20061;-69
2023/08/26 07:53:47;;;;;;;4.97;1.80;;;;;;;20.24;80.31;100877.31;5050388;28;20476;-71
2023/08/26 07:56:12;;;;;;;5.45;1.83;;;;;;;20.77;78.24;100876.94;5040537;28;20030;-71
2023/08/26 07:58:37;;;;;;;4.30;2.13;;;;;;;21.11;76.88;100877.34;5031494;28;20083;-69
2023/08/26 08:01:03;;;;;;;5.05;2.08;;;;;;;21.39;75.60;100899.94;5031528;28;20498;-70
2023/08/26 08:03:28;;;;;;;3.75;1.90;;;;;;;21.16;72.91;100896.72;5031473;28;20037;-70
2023/08/26 08:05:54;;;;;;;3.15;1.65;;;;;;;21.20;74.23;100894.56;5028890;28;20043;-70
2023/08/26 08:08:19;;;;;;;4.78;1.85;;;;;;;21.33;74.01;100889.72;5041428;28;20060;-70
2023/08/26 08:10:44;;;;;;;4.43;2.00;;;;;;;21.50;72.72;100888.09;5038806;28;20260;-70
2023/08/26 08:13:10;;;;;;;4.45;2.13;;;;;;;21.69;71.64;100881.75;5039306;28;20572;-69
2023/08/26 08:15:35;;;;;;;5.55;2.08;;;;;;;21.82;70.13;100877.72;5027592;28;20537;-71
2023/08/26 08:18:02;;;;;;;5.28;1.98;;;;;;;22.19;70.71;100878.66;5034858;28;20033;-69
2023/08/26 08:20:29;;;;;;;4.43;1.70;;;;;;;22.42;69.53;100876.38;5042476;28;20122;-69
2023/08/26 08:22:54;;;;;;;5.35;2.08;;;;;;;22.44;68.33;100874.34;5037852;28;20030;-71
2023/08/26 08:25:20;;;;;;;4.18;1.80;;;;;;;22.79;66.24;100878.94;5042669;28;20032;-72
2023/08/26 08:27:45;;;;;;;4.95;1.80;;;;;;;23.43;66.34;100879.59;5040003;28;20130;-70
2023/08/26 08:30:10;;;;;;;3.92;1.45;;;;;;;23.49;63.51;100878.94;5044461;28;20253;-70
2023/08/26 08:32:36;;;;;;;5.75;2.22;;;;;;;23.47;62.38;100878.28;5052250;28;20128;-71
2023/08/26 08:35:03;;;;;;;3.80;1.40;;;;;;;23.69;62.28;100879.59;5027884;28;20033;-70
2023/08/26 08:37:28;;;;;;;4.30;1.42;;;;;;;23.64;62.68;100885.50;5029181;28;20025;-69
2023/08/26 08:39:53;;;;;;;2.90;1.45;;;;;;;23.98;59.62;100876.50;5041939;28;20029;-70
2023/08/26 08:42:21;;;;;;;3.03;1.35;;;;;;;24.80;57.27;100875.69;5040878;28;20498;-70
2023/08/26 08:44:48;;;;;;;5.05;1.92;;;;;;;25.51;54.90;100879.53;5034385;28;20028;-70
2023/08/26 08:47:13;;;;;;;3.28;1.45;;;;;;;25.84;53.00;100876.75;5039044;28;20032;-71
2023/08/26 08:49:42;;;;;;;3.70;1.70;;;;;;;26.53;53.31;100876.88;5047481;28;20033;-71
2023/08/26 08:52:07;;;;;;;4.65;1.52;;;;;;;26.73;49.06;100883.56;5044549;28;20049;-71
2023/08/26 08:54:37;;;;;;;4.30;1.60;;;;;;;26.81;48.64;100875.31;5042701;28;20115;-71
2023/08/26 08:57:05;;;;;;;2.38;1.25;;;;;;;26.76;47.03;100885.09;5038221;28;20417;-71
2023/08/26 08:59:35;;;;;;;5.47;1.83;;;;;;;26.53;48.08;100882.34;5026453;28;20029;-70
2023/08/26 09:02:01;;;;;;;4.72;1.80;;;;;;;26.56;47.91;100888.28;5033795;28;20230;-70
2023/08/26 09:04:28;;;;;;;5.30;1.42;;;;;;;26.31;48.38;100895.75;5036475;28;23636;-70
2023/08/26 09:06:53;;;;;;;5.10;1.63;;;;;;;26.68;47.32;100894.19;5054549;28;20103;-69
2023/08/26 09:09:20;;;;;;;4.43;1.48;;;;;;;26.24;46.86;100902.94;5049311;28;20073;-69
2023/08/26 09:11:47;;;;;;;4.68;1.50;;;;;;;26.43;48.10;100896.22;5041400;28;20111;-70
2023/08/26 09:14:12;;;;;;;6.28;1.40;;;;;;;26.50;47.84;100899.94;5042550;28;20072;-70
2023/08/26 09:16:43;;;;;;;3.90;1.50;;;;;;;27.22;45.98;100896.00;5036130;28;20032;-69
2023/08/26 09:19:10;;;;;;;7.63;1.70;;;;;;;28.13;45.43;100905.72;5031635;28;20040;-70
2023/08/26 09:21:45;;;;;;;6.57;1.27;;;;;;;28.47;44.11;100905.13;5054992;28;20073;-71
2023/08/26 09:24:13;;;;;;;8.07;1.83;;;;;;;28.71;43.44;100912.09;5037167;28;20043;-72
2023/08/26 09:26:39;;;;;;;3.58;1.10;;;;;;;29.10;42.48;100894.38;5030692;28;20497;-71
2023/08/26 09:29:20;;;;;;;3.72;1.10;;;;;;;29.32;42.44;100903.41;5050867;28;20033;-71
2023/08/26 09:31:49;;;;;;;4.70;1.23;;;;;;;28.58;40.24;100898.28;5032012;28;20027;-71
2023/08/26 09:34:28;;;;;;;3.70;1.05;;;;;;;28.45;42.96;100909.09;5044497;28;20091;-71
2023/08/26 09:36:53;;;;;;;4.15;1.20;;;;;;;27.80;41.30;100908.06;5030602;28;20028;-71
2023/08/26 09:39:18;;;;;;;2.72;0.90;;;;;;;26.57;43.95;100908.25;5046730;28;20112;-71
2023/08/26 09:41:47;;;;;;;2.97;1.10;;;;;;;25.86;46.80;100906.53;5043335;28;20099;-71
2023/08/26 09:44:14;;;;;;;3.35;1.08;;;;;;;26.14;46.90;100915.97;5043542;28;20037;-71
2023/08/26 09:46:42;;;;;;;3.75;1.15;;;;;;;25.74;47.40;100914.22;5041312;28;20049;-70
2023/08/26 09:49:11;;;;;;;2.47;1.00;;;;;;;24.63;48.82;100917.50;5045484;28;20082;-71
2023/08/26 09:51:36;;;;;;;2.22;1.10;;;;;;;23.59;51.59;100921.31;5026945;28;20138;-71
2023/08/26 09:54:03;;;;;;;4.85;1.20;;;;;;;22.94;53.06;100919.97;5033834;28;20115;-71
2023/08/26 09:56:28;;;;;;;2.85;1.10;;;;;;;22.35;54.71;100917.66;5053181;28;20052;-70
2023/08/26 09:58:55;;;;;;;4.25;1.50;;;;;;;22.27;56.60;100920.28;5043973;28;20025;-71
2023/08/26 10:01:22;;;;;;;4.07;1.10;;;;;;;22.13;56.34;100909.94;5039132;28;20017;-70
2023/08/26 10:03:58;;;;;;;2.90;1.70;;;;;;;24.02;54.46;100919.50;5032625;28;20060;-71
2023/08/26 10:06:25;;;;;;;3.00;1.45;;;;;;;25.78;47.91;100921.91;5032757;28;20100;-70
2023/08/26 10:08:58;;;;;;;2.00;1.00;;;;;;;25.78;48.09;100911.00;5039602;28;20190;-70
2023/08/26 10:11:27;;;;;;;2.50;1.00;;;;;;;26.51;46.08;100918.03;5035963;28;20033;-71
2023/08/26 10:13:56;;;;;;;3.75;1.00;;;;;;;27.66;43.33;100915.16;5052229;28;20055;-71
2023/08/26 10:16:23;;;;;;;3.03;0.70;;;;;;;28.72;40.26;100911.09;5033705;28;20056;-72
2023/08/26 10:18:54;;;;;;;1.98;0.90;;;;;;;29.90;40.91;100919.63;5044902;28;20090;-70
2023/08/26 10:21:20;;;;;;;2.13;1.15;;;;;;;30.37;38.61;100912.47;5051690;28;20036;-72
2023/08/26 10:23:48;;;;;;;1.95;0.73;;;;;;;30.52;37.92;100915.91;5043639;28;20025;-71
2023/08/26 10:26:16;;;;;;;1.45;0.95;;;;;;;30.24;35.82;100925.09;5053450;28;20033;-71
2023/08/26 10:28:43;;;;;;;3.28;0.95;;;;;;;30.20;37.06;100923.81;5042010;28;20518;-71
2023/08/26 10:31:09;;;;;;;1.75;0.70;;;;;;;28.81;37.91;100927.38;5042656;28;20045;-70
2023/08/26 10:34:12;;;;;;;1.67;0.80;;;;;;;29.57;38.70;100925.78;5041623;28;20017;-71
2023/08/26 10:36:38;;;;;;;2.22;0.80;;;;;;;28.70;38.70;100932.31;5035802;28;20058;-72
2023/08/26 10:39:13;;;;;;;3.20;1.20;;;;;;;29.08;38.13;100925.75;5044155;28;20290;-71
2023/08/26 10:41:38;;;;;;;2.13;0.95;;;;;;;30.61;37.75;100922.06;5036375;28;20025;-70
2023/08/26 10:44:07;;;;;;;4.40;1.17;;;;;;;31.36;34.73;100929.16;5042997;28;20013;-69
2023/08/26 10:46:55;;;;;;;1.13;0.73;;;;;;;31.43;35.80;100918.13;5053156;28;20371;-70
2023/08/26 10:49:39;;;;;;;2.20;1.00;;;;;;;31.56;36.39;100920.03;5037785;28;20103;-70
2023/08/26 10:52:31;;;;;;;2.05;0.95;;;;;;;31.63;35.27;100909.84;5044927;28;20087;-72
2023/08/26 10:55:10;;;;;;;1.30;0.80;;;;;;;31.99;33.74;100912.97;5034866;28;20150;-71
2023/08/26 10:57:36;;;;;;;1.60;0.80;;;;;;;32.02;31.72;100919.94;5044736;28;20016;-71
2023/08/26 11:00:08;;;;;;;1.83;0.88;;;;;;;32.23;32.50;100914.16;5039576;28;20021;-71
2023/08/26 11:02:35;;;;;;;2.05;1.10;;;;;;;33.14;31.39;100909.34;5042194;28;20065;-70
2023/08/26 11:05:00;;;;;;;1.50;1.02;;;;;;;33.07;30.96;100903.91;5041699;28;20040;-72
2023/08/26 11:07:26;;;;;;;2.13;0.95;;;;;;;32.92;30.14;100917.19;5038360;28;20059;-71
2023/08/26 11:09:52;;;;;;;3.08;1.10;;;;;;;30.69;33.48;100908.97;5043837;28;20036;-69
2023/08/26 11:12:28;;;;;;;1.63;1.02;;;;;;;28.60;37.37;100909.06;5037949;28;20025;-70
2023/08/26 11:15:03;;;;;;;1.58;1.00;;;;;;;26.61;40.77;100906.84;5040446;28;20047;-70
2023/08/26 11:17:29;;;;;;;2.08;1.38;;;;;;;25.24;44.04;100899.00;5051107;28;20098;-70